sensor_id;sensor_type;location;lat;lon;timestamp;P1;durP1;ratioP1;P2;durP2;ratioP2
9186;SDS011;7273;48.902;9.410;2022-12-29T00:02:01;257.08;;;88.13;;
9186;SDS011;7273;48.902;9.410;2022-12-29T00:04:27;256.10;;;87.43;;
9186;SDS011;7273;48.902;9.410;2022-12-29T00:06:53;255.23;;;87.20;;
9186;SDS011;7273;48.902;9.410;2022-12-29T00:09:19;258.35;;;88.30;;
9186;SDS011;7273;48.902;9.410;2022-12-29T00:11:45;257.13;;;87.90;;
9186;SDS011;7273;48.902;9.410;2022-12-29T00:14:11;257.63;;;87.88;;
9186;SDS011;7273;48.902;9.410;2022-12-29T00:16:55;261.88;;;89.47;;
9186;SDS011;7273;48.902;9.410;2022-12-29T00:19:21;261.88;;;87.93;;
9186;SDS011;7273;48.902;9.410;2022-12-29T00:22:07;265.33;;;90.40;;
9186;SDS011;7273;48.902;9.410;2022-12-29T00:24:53;261.77;;;88.70;;
9186;SDS011;7273;48.902;9.410;2022-12-29T00:27:34;259.95;;;88.18;;
9186;SDS011;7273;48.902;9.410;2022-12-29T00:30:19;260.75;;;88.85;;
9186;SDS011;7273;48.902;9.410;2022-12-29T00:33:19;260.25;;;88.22;;
9186;SDS011;7273;48.902;9.410;2022-12-29T00:36:23;263.65;;;88.90;;
9186;SDS011;7273;48.902;9.410;2022-12-29T00:39:12;262.50;;;88.82;;
9186;SDS011;7273;48.902;9.410;2022-12-29T00:42:06;266.85;;;89.70;;
9186;SDS011;7273;48.902;9.410;2022-12-29T00:44:51;268.92;;;90.00;;
9186;SDS011;7273;48.902;9.410;2022-12-29T00:47:17;261.15;;;88.40;;
9186;SDS011;7273;48.902;9.410;2022-12-29T00:49:42;260.85;;;88.78;;
9186;SDS011;7273;48.902;9.410;2022-12-29T00:52:08;260.15;;;88.53;;
9186;SDS011;7273;48.902;9.410;2022-12-29T00:54:36;260.85;;;88.43;;
9186;SDS011;7273;48.902;9.410;2022-12-29T00:57:04;260.92;;;89.82;;
9186;SDS011;7273;48.902;9.410;2022-12-29T00:59:31;257.20;;;87.30;;
9186;SDS011;7273;48.902;9.410;2022-12-29T01:01:56;259.45;;;88.32;;
9186;SDS011;7273;48.902;9.410;2022-12-29T01:04:23;259.65;;;88.55;;
9186;SDS011;7273;48.902;9.410;2022-12-29T01:06:50;260.83;;;88.97;;
9186;SDS011;7273;48.902;9.410;2022-12-29T01:09:16;259.23;;;88.43;;
9186;SDS011;7273;48.902;9.410;2022-12-29T01:12:01;263.30;;;89.38;;
9186;SDS011;7273;48.902;9.410;2022-12-29T01:14:27;258.85;;;88.00;;
9186;SDS011;7273;48.902;9.410;2022-12-29T01:16:53;256.73;;;87.13;;
9186;SDS011;7273;48.902;9.410;2022-12-29T01:19:20;258.23;;;87.30;;
9186;SDS011;7273;48.902;9.410;2022-12-29T01:21:46;259.20;;;88.35;;
9186;SDS011;7273;48.902;9.410;2022-12-29T01:24:13;261.88;;;89.45;;
9186;SDS011;7273;48.902;9.410;2022-12-29T01:26:39;265.27;;;89.85;;
9186;SDS011;7273;48.902;9.410;2022-12-29T01:29:04;259.05;;;88.60;;
9186;SDS011;7273;48.902;9.410;2022-12-29T01:31:30;260.05;;;89.15;;
9186;SDS011;7273;48.902;9.410;2022-12-29T01:33:55;263.38;;;89.68;;
9186;SDS011;7273;48.902;9.410;2022-12-29T01:36:21;263.83;;;90.30;;
9186;SDS011;7273;48.902;9.410;2022-12-29T01:38:46;264.27;;;90.15;;
9186;SDS011;7273;48.902;9.410;2022-12-29T01:41:12;262.60;;;89.68;;
9186;SDS011;7273;48.902;9.410;2022-12-29T01:51:41;266.35;;;90.25;;
9186;SDS011;7273;48.902;9.410;2022-12-29T01:54:10;266.85;;;90.53;;
9186;SDS011;7273;48.902;9.410;2022-12-29T01:56:41;267.63;;;90.47;;
9186;SDS011;7273;48.902;9.410;2022-12-29T01:59:09;266.08;;;90.15;;
9186;SDS011;7273;48.902;9.410;2022-12-29T02:01:40;268.05;;;90.95;;
9186;SDS011;7273;48.902;9.410;2022-12-29T02:04:06;265.83;;;89.57;;
9186;SDS011;7273;48.902;9.410;2022-12-29T02:06:39;267.73;;;90.72;;
9186;SDS011;7273;48.902;9.410;2022-12-29T02:09:10;267.10;;;90.43;;
9186;SDS011;7273;48.902;9.410;2022-12-29T02:11:35;265.83;;;90.05;;
9186;SDS011;7273;48.902;9.410;2022-12-29T02:14:04;265.52;;;91.68;;
9186;SDS011;7273;48.902;9.410;2022-12-29T02:24:37;270.30;;;91.13;;
9186;SDS011;7273;48.902;9.410;2022-12-29T02:35:00;270.38;;;91.30;;
9186;SDS011;7273;48.902;9.410;2022-12-29T02:40:43;280.38;;;91.45;;
9186;SDS011;7273;48.902;9.410;2022-12-29T02:43:19;276.13;;;92.38;;
9186;SDS011;7273;48.902;9.410;2022-12-29T02:48:37;275.48;;;92.80;;
9186;SDS011;7273;48.902;9.410;2022-12-29T02:51:08;276.48;;;92.60;;
9186;SDS011;7273;48.902;9.410;2022-12-29T02:53:42;277.45;;;92.68;;
9186;SDS011;7273;48.902;9.410;2022-12-29T02:56:26;275.98;;;91.93;;
9186;SDS011;7273;48.902;9.410;2022-12-29T02:58:52;276.80;;;92.78;;
9186;SDS011;7273;48.902;9.410;2022-12-29T03:09:49;279.05;;;92.70;;
9186;SDS011;7273;48.902;9.410;2022-12-29T03:15:43;280.55;;;92.47;;
9186;SDS011;7273;48.902;9.410;2022-12-29T03:21:03;284.15;;;92.45;;
9186;SDS011;7273;48.902;9.410;2022-12-29T03:23:34;283.48;;;93.63;;
9186;SDS011;7273;48.902;9.410;2022-12-29T03:26:02;284.10;;;93.63;;
9186;SDS011;7273;48.902;9.410;2022-12-29T03:28:36;287.65;;;95.85;;
9186;SDS011;7273;48.902;9.410;2022-12-29T03:31:06;287.00;;;94.47;;
9186;SDS011;7273;48.902;9.410;2022-12-29T03:33:34;286.38;;;94.57;;
9186;SDS011;7273;48.902;9.410;2022-12-29T03:36:05;287.20;;;94.20;;
9186;SDS011;7273;48.902;9.410;2022-12-29T03:38:35;289.48;;;94.95;;
9186;SDS011;7273;48.902;9.410;2022-12-29T03:41:04;290.88;;;95.05;;
9186;SDS011;7273;48.902;9.410;2022-12-29T03:43:33;286.05;;;94.13;;
9186;SDS011;7273;48.902;9.410;2022-12-29T03:45:59;293.73;;;96.85;;
9186;SDS011;7273;48.902;9.410;2022-12-29T03:48:24;288.85;;;94.55;;
9186;SDS011;7273;48.902;9.410;2022-12-29T03:50:50;292.48;;;95.03;;
9186;SDS011;7273;48.902;9.410;2022-12-29T03:53:15;296.83;;;96.20;;
9186;SDS011;7273;48.902;9.410;2022-12-29T03:55:41;306.25;;;99.70;;
9186;SDS011;7273;48.902;9.410;2022-12-29T03:58:06;311.90;;;98.75;;
9186;SDS011;7273;48.902;9.410;2022-12-29T04:00:32;323.48;;;100.68;;
9186;SDS011;7273;48.902;9.410;2022-12-29T04:02:57;425.63;;;123.85;;
9186;SDS011;7273;48.902;9.410;2022-12-29T04:05:23;430.13;;;123.38;;
9186;SDS011;7273;48.902;9.410;2022-12-29T04:07:48;387.15;;;114.60;;
9186;SDS011;7273;48.902;9.410;2022-12-29T04:10:13;386.10;;;113.03;;
9186;SDS011;7273;48.902;9.410;2022-12-29T04:12:39;415.48;;;120.63;;
9186;SDS011;7273;48.902;9.410;2022-12-29T04:15:07;367.42;;;109.43;;
9186;SDS011;7273;48.902;9.410;2022-12-29T04:17:33;377.23;;;111.45;;
9186;SDS011;7273;48.902;9.410;2022-12-29T04:19:58;401.48;;;116.78;;
9186;SDS011;7273;48.902;9.410;2022-12-29T04:22:44;407.33;;;118.22;;
9186;SDS011;7273;48.902;9.410;2022-12-29T04:25:09;457.52;;;131.30;;
9186;SDS011;7273;48.902;9.410;2022-12-29T04:27:35;424.55;;;122.40;;
9186;SDS011;7273;48.902;9.410;2022-12-29T04:30:00;427.50;;;123.22;;
9186;SDS011;7273;48.902;9.410;2022-12-29T04:32:26;399.40;;;116.05;;
9186;SDS011;7273;48.902;9.410;2022-12-29T04:34:51;407.33;;;117.85;;
9186;SDS011;7273;48.902;9.410;2022-12-29T04:37:17;408.42;;;118.03;;
9186;SDS011;7273;48.902;9.410;2022-12-29T04:39:42;409.48;;;119.18;;
9186;SDS011;7273;48.902;9.410;2022-12-29T04:42:08;409.98;;;118.50;;
9186;SDS011;7273;48.902;9.410;2022-12-29T04:44:33;407.92;;;118.13;;
9186;SDS011;7273;48.902;9.410;2022-12-29T04:46:58;372.52;;;110.40;;
9186;SDS011;7273;48.902;9.410;2022-12-29T04:49:24;403.80;;;118.68;;
9186;SDS011;7273;48.902;9.410;2022-12-29T04:51:49;400.50;;;117.80;;
9186;SDS011;7273;48.902;9.410;2022-12-29T04:54:15;384.45;;;113.00;;
9186;SDS011;7273;48.902;9.410;2022-12-29T04:56:40;369.35;;;109.38;;
9186;SDS011;7273;48.902;9.410;2022-12-29T04:59:05;403.98;;;117.20;;
9186;SDS011;7273;48.902;9.410;2022-12-29T05:01:31;385.30;;;112.63;;
9186;SDS011;7273;48.902;9.410;2022-12-29T05:03:56;408.40;;;118.15;;
9186;SDS011;7273;48.902;9.410;2022-12-29T05:06:22;402.23;;;116.57;;
9186;SDS011;7273;48.902;9.410;2022-12-29T05:08:47;389.85;;;113.95;;
9186;SDS011;7273;48.902;9.410;2022-12-29T05:11:12;401.67;;;116.38;;
9186;SDS011;7273;48.902;9.410;2022-12-29T05:13:38;386.48;;;113.13;;
9186;SDS011;7273;48.902;9.410;2022-12-29T05:16:03;393.63;;;114.35;;
9186;SDS011;7273;48.902;9.410;2022-12-29T05:18:29;406.23;;;117.80;;
9186;SDS011;7273;48.902;9.410;2022-12-29T05:20:54;399.92;;;115.80;;
9186;SDS011;7273;48.902;9.410;2022-12-29T05:23:20;399.23;;;115.88;;
9186;SDS011;7273;48.902;9.410;2022-12-29T05:25:45;396.73;;;115.22;;
9186;SDS011;7273;48.902;9.410;2022-12-29T05:28:11;395.83;;;114.88;;
9186;SDS011;7273;48.902;9.410;2022-12-29T05:30:36;323.55;;;100.85;;
9186;SDS011;7273;48.902;9.410;2022-12-29T05:33:01;319.77;;;101.05;;
9186;SDS011;7273;48.902;9.410;2022-12-29T05:35:27;312.27;;;98.97;;
9186;SDS011;7273;48.902;9.410;2022-12-29T05:37:52;315.83;;;99.88;;
9186;SDS011;7273;48.902;9.410;2022-12-29T05:40:18;315.42;;;99.53;;
9186;SDS011;7273;48.902;9.410;2022-12-29T05:42:43;316.15;;;99.78;;
9186;SDS011;7273;48.902;9.410;2022-12-29T05:45:08;320.42;;;100.53;;
9186;SDS011;7273;48.902;9.410;2022-12-29T05:47:34;325.40;;;101.45;;
9186;SDS011;7273;48.902;9.410;2022-12-29T05:50:00;331.90;;;102.88;;
9186;SDS011;7273;48.902;9.410;2022-12-29T05:52:25;318.88;;;100.38;;
9186;SDS011;7273;48.902;9.410;2022-12-29T05:54:51;344.75;;;104.68;;
9186;SDS011;7273;48.902;9.410;2022-12-29T05:57:16;333.17;;;102.00;;
9186;SDS011;7273;48.902;9.410;2022-12-29T05:59:42;328.77;;;102.50;;
9186;SDS011;7273;48.902;9.410;2022-12-29T06:02:08;351.80;;;106.35;;
9186;SDS011;7273;48.902;9.410;2022-12-29T06:04:34;333.55;;;103.18;;
9186;SDS011;7273;48.902;9.410;2022-12-29T06:07:00;373.73;;;110.43;;
9186;SDS011;7273;48.902;9.410;2022-12-29T06:09:25;347.60;;;105.55;;
9186;SDS011;7273;48.902;9.410;2022-12-29T06:11:50;376.42;;;110.10;;
9186;SDS011;7273;48.902;9.410;2022-12-29T06:14:16;371.58;;;110.22;;
9186;SDS011;7273;48.902;9.410;2022-12-29T06:16:41;379.00;;;111.72;;
9186;SDS011;7273;48.902;9.410;2022-12-29T06:19:07;380.98;;;111.82;;
9186;SDS011;7273;48.902;9.410;2022-12-29T06:21:32;390.13;;;113.72;;
9186;SDS011;7273;48.902;9.410;2022-12-29T06:23:58;407.15;;;118.00;;
9186;SDS011;7273;48.902;9.410;2022-12-29T06:26:23;401.08;;;116.68;;
9186;SDS011;7273;48.902;9.410;2022-12-29T06:28:48;388.45;;;113.78;;
9186;SDS011;7273;48.902;9.410;2022-12-29T06:31:14;412.08;;;119.75;;
9186;SDS011;7273;48.902;9.410;2022-12-29T06:33:39;372.73;;;110.70;;
9186;SDS011;7273;48.902;9.410;2022-12-29T06:36:05;379.52;;;111.47;;
9186;SDS011;7273;48.902;9.410;2022-12-29T06:38:30;402.52;;;116.93;;
9186;SDS011;7273;48.902;9.410;2022-12-29T06:40:56;397.70;;;115.13;;
9186;SDS011;7273;48.902;9.410;2022-12-29T06:43:21;389.90;;;114.07;;
9186;SDS011;7273;48.902;9.410;2022-12-29T06:45:47;375.83;;;110.88;;
9186;SDS011;7273;48.902;9.410;2022-12-29T06:48:12;408.63;;;118.13;;
9186;SDS011;7273;48.902;9.410;2022-12-29T06:50:38;387.48;;;113.65;;
9186;SDS011;7273;48.902;9.410;2022-12-29T06:53:03;382.77;;;112.18;;
9186;SDS011;7273;48.902;9.410;2022-12-29T06:55:29;386.17;;;113.47;;
9186;SDS011;7273;48.902;9.410;2022-12-29T06:57:55;395.55;;;115.15;;
9186;SDS011;7273;48.902;9.410;2022-12-29T07:00:21;401.77;;;117.57;;
9186;SDS011;7273;48.902;9.410;2022-12-29T07:02:47;398.65;;;115.72;;
9186;SDS011;7273;48.902;9.410;2022-12-29T07:05:13;401.02;;;117.00;;
9186;SDS011;7273;48.902;9.410;2022-12-29T07:07:38;393.92;;;115.03;;
9186;SDS011;7273;48.902;9.410;2022-12-29T07:10:04;399.13;;;116.72;;
9186;SDS011;7273;48.902;9.410;2022-12-29T07:12:30;383.45;;;113.13;;
9186;SDS011;7273;48.902;9.410;2022-12-29T07:14:55;378.77;;;111.72;;
9186;SDS011;7273;48.902;9.410;2022-12-29T07:17:21;391.75;;;115.28;;
9186;SDS011;7273;48.902;9.410;2022-12-29T07:19:46;406.15;;;117.93;;
9186;SDS011;7273;48.902;9.410;2022-12-29T07:22:11;382.30;;;112.60;;
9186;SDS011;7273;48.902;9.410;2022-12-29T07:24:37;389.88;;;116.00;;
9186;SDS011;7273;48.902;9.410;2022-12-29T07:27:02;398.42;;;116.43;;
9186;SDS011;7273;48.902;9.410;2022-12-29T07:29:28;376.90;;;111.82;;
9186;SDS011;7273;48.902;9.410;2022-12-29T07:31:54;374.88;;;110.82;;
9186;SDS011;7273;48.902;9.410;2022-12-29T07:34:19;386.23;;;113.63;;
9186;SDS011;7273;48.902;9.410;2022-12-29T07:36:44;405.00;;;116.88;;
9186;SDS011;7273;48.902;9.410;2022-12-29T07:39:10;387.23;;;114.05;;
9186;SDS011;7273;48.902;9.410;2022-12-29T07:41:36;397.85;;;115.13;;
9186;SDS011;7273;48.902;9.410;2022-12-29T07:44:02;408.92;;;118.65;;
9186;SDS011;7273;48.902;9.410;2022-12-29T07:46:27;366.27;;;109.07;;
9186;SDS011;7273;48.902;9.410;2022-12-29T07:48:53;365.10;;;108.70;;
9186;SDS011;7273;48.902;9.410;2022-12-29T07:51:18;374.02;;;110.47;;
9186;SDS011;7273;48.902;9.410;2022-12-29T07:53:44;397.52;;;115.70;;
9186;SDS011;7273;48.902;9.410;2022-12-29T07:56:09;375.50;;;110.63;;
9186;SDS011;7273;48.902;9.410;2022-12-29T07:58:34;374.35;;;111.22;;
9186;SDS011;7273;48.902;9.410;2022-12-29T08:01:00;378.48;;;111.47;;
9186;SDS011;7273;48.902;9.410;2022-12-29T08:03:25;381.05;;;111.93;;
9186;SDS011;7273;48.902;9.410;2022-12-29T08:05:51;419.20;;;122.43;;
9186;SDS011;7273;48.902;9.410;2022-12-29T08:08:17;363.75;;;108.80;;
9186;SDS011;7273;48.902;9.410;2022-12-29T08:10:43;374.48;;;110.78;;
9186;SDS011;7273;48.902;9.410;2022-12-29T08:13:09;385.10;;;112.30;;
9186;SDS011;7273;48.902;9.410;2022-12-29T08:15:34;387.92;;;113.43;;
9186;SDS011;7273;48.902;9.410;2022-12-29T08:18:00;405.33;;;118.80;;
9186;SDS011;7273;48.902;9.410;2022-12-29T08:20:25;387.00;;;113.13;;
9186;SDS011;7273;48.902;9.410;2022-12-29T08:22:51;434.30;;;125.50;;
9186;SDS011;7273;48.902;9.410;2022-12-29T08:25:16;386.20;;;114.10;;
9186;SDS011;7273;48.902;9.410;2022-12-29T08:27:42;370.13;;;109.85;;
9186;SDS011;7273;48.902;9.410;2022-12-29T08:30:08;371.20;;;110.00;;
9186;SDS011;7273;48.902;9.410;2022-12-29T08:32:34;391.80;;;113.88;;
9186;SDS011;7273;48.902;9.410;2022-12-29T08:34:59;383.65;;;113.63;;
9186;SDS011;7273;48.902;9.410;2022-12-29T08:37:25;394.92;;;114.43;;
9186;SDS011;7273;48.902;9.410;2022-12-29T08:39:51;422.15;;;121.85;;
9186;SDS011;7273;48.902;9.410;2022-12-29T08:42:16;398.48;;;115.57;;
9186;SDS011;7273;48.902;9.410;2022-12-29T08:44:42;404.08;;;117.07;;
9186;SDS011;7273;48.902;9.410;2022-12-29T08:47:08;452.20;;;129.95;;
9186;SDS011;7273;48.902;9.410;2022-12-29T08:49:34;359.15;;;108.18;;
9186;SDS011;7273;48.902;9.410;2022-12-29T08:52:01;365.13;;;109.25;;
9186;SDS011;7273;48.902;9.410;2022-12-29T08:54:27;387.08;;;113.05;;
9186;SDS011;7273;48.902;9.410;2022-12-29T08:56:52;396.88;;;115.18;;
9186;SDS011;7273;48.902;9.410;2022-12-29T08:59:18;384.73;;;112.35;;
9186;SDS011;7273;48.902;9.410;2022-12-29T09:01:44;392.15;;;113.50;;
9186;SDS011;7273;48.902;9.410;2022-12-29T09:04:09;391.80;;;113.80;;
9186;SDS011;7273;48.902;9.410;2022-12-29T09:06:35;399.33;;;115.50;;
9186;SDS011;7273;48.902;9.410;2022-12-29T09:09:00;419.80;;;119.45;;
9186;SDS011;7273;48.902;9.410;2022-12-29T09:11:25;416.35;;;120.10;;
9186;SDS011;7273;48.902;9.410;2022-12-29T09:13:52;423.02;;;121.32;;
9186;SDS011;7273;48.902;9.410;2022-12-29T09:16:18;434.70;;;124.63;;
9186;SDS011;7273;48.902;9.410;2022-12-29T09:18:45;484.98;;;137.65;;
9186;SDS011;7273;48.902;9.410;2022-12-29T09:21:11;490.25;;;139.85;;
9186;SDS011;7273;48.902;9.410;2022-12-29T09:23:37;509.45;;;145.70;;
9186;SDS011;7273;48.902;9.410;2022-12-29T09:26:03;534.15;;;152.75;;
9186;SDS011;7273;48.902;9.410;2022-12-29T09:28:29;512.05;;;146.48;;
9186;SDS011;7273;48.902;9.410;2022-12-29T09:30:55;491.85;;;139.73;;
9186;SDS011;7273;48.902;9.410;2022-12-29T09:33:22;544.33;;;154.73;;
9186;SDS011;7273;48.902;9.410;2022-12-29T09:35:51;504.15;;;144.60;;
9186;SDS011;7273;48.902;9.410;2022-12-29T09:38:21;392.90;;;118.13;;
9186;SDS011;7273;48.902;9.410;2022-12-29T09:40:49;345.27;;;106.05;;
9186;SDS011;7273;48.902;9.410;2022-12-29T09:49:03;286.55;;;94.22;;
9186;SDS011;7273;48.902;9.410;2022-12-29T09:51:37;304.75;;;97.90;;
9186;SDS011;7273;48.902;9.410;2022-12-29T09:56:46;344.52;;;105.68;;
9186;SDS011;7273;48.902;9.410;2022-12-29T09:59:16;311.40;;;98.78;;
9186;SDS011;7273;48.902;9.410;2022-12-29T10:02:31;314.02;;;99.32;;
9186;SDS011;7273;48.902;9.410;2022-12-29T10:04:54;252.00;;;87.10;;
9186;SDS011;7273;48.902;9.410;2022-12-29T10:10:31;242.20;;;85.30;;
9186;SDS011;7273;48.902;9.410;2022-12-29T10:15:54;230.52;;;82.70;;
9186;SDS011;7273;48.902;9.410;2022-12-29T10:18:37;227.88;;;82.03;;
9186;SDS011;7273;48.902;9.410;2022-12-29T10:23:51;228.80;;;82.45;;
9186;SDS011;7273;48.902;9.410;2022-12-29T10:26:19;214.82;;;79.68;;
9186;SDS011;7273;48.902;9.410;2022-12-29T10:31:25;214.23;;;79.40;;
9186;SDS011;7273;48.902;9.410;2022-12-29T10:33:59;218.57;;;80.13;;
9186;SDS011;7273;48.902;9.410;2022-12-29T10:39:05;230.60;;;84.72;;
9186;SDS011;7273;48.902;9.410;2022-12-29T10:41:41;223.52;;;81.20;;
9186;SDS011;7273;48.902;9.410;2022-12-29T10:44:13;224.10;;;81.22;;
9186;SDS011;7273;48.902;9.410;2022-12-29T10:46:41;220.85;;;80.55;;
9186;SDS011;7273;48.902;9.410;2022-12-29T10:49:14;217.93;;;79.47;;
9186;SDS011;7273;48.902;9.410;2022-12-29T10:51:43;222.68;;;81.25;;
9186;SDS011;7273;48.902;9.410;2022-12-29T10:57:05;224.10;;;81.80;;
9186;SDS011;7273;48.902;9.410;2022-12-29T10:59:36;226.45;;;82.55;;
9186;SDS011;7273;48.902;9.410;2022-12-29T11:05:37;219.52;;;80.15;;
9186;SDS011;7273;48.902;9.410;2022-12-29T11:07:50;226.23;;;82.07;;
9186;SDS011;7273;48.902;9.410;2022-12-29T11:15:42;219.18;;;80.68;;
9186;SDS011;7273;48.902;9.410;2022-12-29T11:18:19;216.98;;;79.97;;
9186;SDS011;7273;48.902;9.410;2022-12-29T11:20:50;216.32;;;79.43;;
9186;SDS011;7273;48.902;9.410;2022-12-29T11:23:26;210.07;;;78.32;;
9186;SDS011;7273;48.902;9.410;2022-12-29T11:26:08;215.43;;;81.28;;
9186;SDS011;7273;48.902;9.410;2022-12-29T11:28:43;215.45;;;79.78;;
9186;SDS011;7273;48.902;9.410;2022-12-29T11:33:40;230.30;;;82.55;;
9186;SDS011;7273;48.902;9.410;2022-12-29T11:36:06;215.27;;;79.90;;
9186;SDS011;7273;48.902;9.410;2022-12-29T11:38:51;201.55;;;76.95;;
9186;SDS011;7273;48.902;9.410;2022-12-29T11:41:20;199.55;;;76.07;;
9186;SDS011;7273;48.902;9.410;2022-12-29T11:44:00;204.73;;;77.03;;
9186;SDS011;7273;48.902;9.410;2022-12-29T11:46:30;204.23;;;76.88;;
9186;SDS011;7273;48.902;9.410;2022-12-29T11:49:01;202.80;;;77.10;;
9186;SDS011;7273;48.902;9.410;2022-12-29T11:51:29;198.15;;;76.20;;
9186;SDS011;7273;48.902;9.410;2022-12-29T11:53:59;197.30;;;75.90;;
9186;SDS011;7273;48.902;9.410;2022-12-29T12:02:03;213.25;;;78.75;;
9186;SDS011;7273;48.902;9.410;2022-12-29T12:04:43;211.80;;;79.05;;
9186;SDS011;7273;48.902;9.410;2022-12-29T12:07:13;204.65;;;77.72;;
9186;SDS011;7273;48.902;9.410;2022-12-29T12:10:03;211.82;;;80.65;;
9186;SDS011;7273;48.902;9.410;2022-12-29T12:12:32;208.52;;;78.60;;
9186;SDS011;7273;48.902;9.410;2022-12-29T12:15:02;210.38;;;78.45;;
9186;SDS011;7273;48.902;9.410;2022-12-29T12:23:35;214.23;;;79.32;;
9186;SDS011;7273;48.902;9.410;2022-12-29T12:28:42;227.10;;;82.82;;
9186;SDS011;7273;48.902;9.410;2022-12-29T12:34:04;222.45;;;81.22;;
9186;SDS011;7273;48.902;9.410;2022-12-29T12:39:25;226.95;;;81.93;;
9186;SDS011;7273;48.902;9.410;2022-12-29T12:42:13;229.93;;;82.47;;
9186;SDS011;7273;48.902;9.410;2022-12-29T12:48:20;236.30;;;83.72;;
9186;SDS011;7273;48.902;9.410;2022-12-29T12:51:05;234.70;;;83.63;;
9186;SDS011;7273;48.902;9.410;2022-12-29T12:56:30;233.63;;;83.88;;
9186;SDS011;7273;48.902;9.410;2022-12-29T12:59:21;231.25;;;83.00;;
9186;SDS011;7273;48.902;9.410;2022-12-29T13:01:57;231.82;;;82.80;;
9186;SDS011;7273;48.902;9.410;2022-12-29T13:18:21;227.77;;;81.80;;
9186;SDS011;7273;48.902;9.410;2022-12-29T13:20:57;229.68;;;82.57;;
9186;SDS011;7273;48.902;9.410;2022-12-29T13:23:56;228.00;;;82.05;;
9186;SDS011;7273;48.902;9.410;2022-12-29T13:29:30;229.35;;;81.60;;
9186;SDS011;7273;48.902;9.410;2022-12-29T13:34:45;231.68;;;83.32;;
9186;SDS011;7273;48.902;9.410;2022-12-29T13:37:22;236.82;;;85.20;;
9186;SDS011;7273;48.902;9.410;2022-12-29T13:39:52;235.18;;;84.47;;
9186;SDS011;7273;48.902;9.410;2022-12-29T13:42:22;235.32;;;83.93;;
9186;SDS011;7273;48.902;9.410;2022-12-29T13:47:27;240.00;;;84.65;;
9186;SDS011;7273;48.902;9.410;2022-12-29T13:49:56;240.73;;;84.97;;
9186;SDS011;7273;48.902;9.410;2022-12-29T13:54:55;257.55;;;91.32;;
9186;SDS011;7273;48.902;9.410;2022-12-29T14:00:16;267.92;;;90.65;;
9186;SDS011;7273;48.902;9.410;2022-12-29T14:07:48;265.20;;;89.82;;
9186;SDS011;7273;48.902;9.410;2022-12-29T14:10:37;268.85;;;90.68;;
9186;SDS011;7273;48.902;9.410;2022-12-29T14:13:24;275.65;;;91.72;;
9186;SDS011;7273;48.902;9.410;2022-12-29T14:15:52;285.70;;;94.57;;
9186;SDS011;7273;48.902;9.410;2022-12-29T14:18:21;318.40;;;102.10;;
9186;SDS011;7273;48.902;9.410;2022-12-29T14:28:34;409.23;;;118.88;;
9186;SDS011;7273;48.902;9.410;2022-12-29T14:33:40;390.77;;;114.45;;
9186;SDS011;7273;48.902;9.410;2022-12-29T14:36:32;405.20;;;116.97;;
9186;SDS011;7273;48.902;9.410;2022-12-29T14:39:03;407.92;;;117.82;;
9186;SDS011;7273;48.902;9.410;2022-12-29T14:41:36;392.02;;;114.45;;
9186;SDS011;7273;48.902;9.410;2022-12-29T14:49:24;362.48;;;108.30;;
9186;SDS011;7273;48.902;9.410;2022-12-29T14:51:52;394.33;;;116.18;;
9186;SDS011;7273;48.902;9.410;2022-12-29T14:57:04;407.75;;;118.60;;
9186;SDS011;7273;48.902;9.410;2022-12-29T14:59:33;404.52;;;117.15;;
9186;SDS011;7273;48.902;9.410;2022-12-29T15:02:00;443.20;;;127.68;;
9186;SDS011;7273;48.902;9.410;2022-12-29T15:04:32;391.45;;;114.53;;
9186;SDS011;7273;48.902;9.410;2022-12-29T15:07:00;422.55;;;122.50;;
9186;SDS011;7273;48.902;9.410;2022-12-29T15:09:33;384.13;;;112.85;;
9186;SDS011;7273;48.902;9.410;2022-12-29T15:12:11;367.83;;;109.93;;
9186;SDS011;7273;48.902;9.410;2022-12-29T15:14:48;405.67;;;119.35;;
9186;SDS011;7273;48.902;9.410;2022-12-29T15:17:23;448.15;;;129.30;;
9186;SDS011;7273;48.902;9.410;2022-12-29T15:19:49;431.95;;;124.47;;
9186;SDS011;7273;48.902;9.410;2022-12-29T15:22:14;370.48;;;110.88;;
9186;SDS011;7273;48.902;9.410;2022-12-29T15:24:41;371.70;;;111.00;;
9186;SDS011;7273;48.902;9.410;2022-12-29T15:27:10;420.50;;;121.88;;
9186;SDS011;7273;48.902;9.410;2022-12-29T15:32:16;452.50;;;129.88;;
9186;SDS011;7273;48.902;9.410;2022-12-29T15:34:44;432.20;;;124.65;;
9186;SDS011;7273;48.902;9.410;2022-12-29T15:37:21;441.30;;;127.03;;
9186;SDS011;7273;48.902;9.410;2022-12-29T15:39:52;382.48;;;112.78;;
9186;SDS011;7273;48.902;9.410;2022-12-29T15:44:50;370.27;;;110.53;;
9186;SDS011;7273;48.902;9.410;2022-12-29T15:47:18;377.95;;;112.47;;
9186;SDS011;7273;48.902;9.410;2022-12-29T15:49:59;384.67;;;113.22;;
9186;SDS011;7273;48.902;9.410;2022-12-29T15:52:29;393.67;;;115.63;;
9186;SDS011;7273;48.902;9.410;2022-12-29T15:54:58;405.98;;;118.60;;
9186;SDS011;7273;48.902;9.410;2022-12-29T15:57:26;418.30;;;121.68;;
9186;SDS011;7273;48.902;9.410;2022-12-29T15:59:54;419.50;;;122.03;;
9186;SDS011;7273;48.902;9.410;2022-12-29T16:02:23;418.95;;;121.80;;
9186;SDS011;7273;48.902;9.410;2022-12-29T16:04:50;434.52;;;126.30;;
9186;SDS011;7273;48.902;9.410;2022-12-29T16:07:27;450.15;;;131.88;;
9186;SDS011;7273;48.902;9.410;2022-12-29T16:09:55;449.33;;;129.60;;
9186;SDS011;7273;48.902;9.410;2022-12-29T16:12:23;469.63;;;134.90;;
9186;SDS011;7273;48.902;9.410;2022-12-29T16:15:21;444.70;;;128.60;;
9186;SDS011;7273;48.902;9.410;2022-12-29T16:17:47;439.77;;;128.23;;
9186;SDS011;7273;48.902;9.410;2022-12-29T16:20:17;451.48;;;132.10;;
9186;SDS011;7273;48.902;9.410;2022-12-29T16:22:55;455.60;;;132.65;;
9186;SDS011;7273;48.902;9.410;2022-12-29T16:27:57;481.60;;;139.25;;
9186;SDS011;7273;48.902;9.410;2022-12-29T16:30:26;571.20;;;172.32;;
9186;SDS011;7273;48.902;9.410;2022-12-29T16:32:55;494.55;;;142.43;;
9186;SDS011;7273;48.902;9.410;2022-12-29T16:35:23;522.10;;;148.45;;
9186;SDS011;7273;48.902;9.410;2022-12-29T16:43:25;539.42;;;154.88;;
9186;SDS011;7273;48.902;9.410;2022-12-29T16:48:20;520.77;;;153.13;;
9186;SDS011;7273;48.902;9.410;2022-12-29T16:50:46;514.10;;;154.55;;
9186;SDS011;7273;48.902;9.410;2022-12-29T16:53:17;365.27;;;110.50;;
9186;SDS011;7273;48.902;9.410;2022-12-29T16:55:50;383.42;;;114.00;;
9186;SDS011;7273;48.902;9.410;2022-12-29T16:58:20;542.67;;;164.45;;
9186;SDS011;7273;48.902;9.410;2022-12-29T17:00:48;455.20;;;133.95;;
9186;SDS011;7273;48.902;9.410;2022-12-29T17:03:14;394.98;;;115.82;;
9186;SDS011;7273;48.902;9.410;2022-12-29T17:05:40;459.90;;;135.43;;
9186;SDS011;7273;48.902;9.410;2022-12-29T17:08:16;555.45;;;164.02;;
9186;SDS011;7273;48.902;9.410;2022-12-29T17:10:54;550.42;;;165.35;;
9186;SDS011;7273;48.902;9.410;2022-12-29T17:13:39;529.22;;;157.82;;
9186;SDS011;7273;48.902;9.410;2022-12-29T17:16:05;380.42;;;114.38;;
9186;SDS011;7273;48.902;9.410;2022-12-29T17:18:34;368.95;;;110.70;;
9186;SDS011;7273;48.902;9.410;2022-12-29T17:21:00;364.48;;;109.63;;
9186;SDS011;7273;48.902;9.410;2022-12-29T17:23:25;363.73;;;109.55;;
9186;SDS011;7273;48.902;9.410;2022-12-29T17:25:52;358.25;;;108.63;;
9186;SDS011;7273;48.902;9.410;2022-12-29T17:28:22;357.50;;;108.78;;
9186;SDS011;7273;48.902;9.410;2022-12-29T17:30:55;359.08;;;109.50;;
9186;SDS011;7273;48.902;9.410;2022-12-29T17:33:26;357.02;;;108.85;;